Gina Maria — CUQU4 — position and weather

sailwx.info

Track history (hours):
 
Tides and Currents Weather Stations Pressure Air Temp Water Temp Dewpoint Dewpoint Depression Visibility Wind Speed Wind Dir Waves Ship Positions

Gina Maria

Last reported at 2017-Oct-23 08:00 UTC. Time now 2017-Oct-23 08:23 UTC.
Position N 38°38' W 009°40'.

MMSI: 263317000.

Date/timePositionNaut miles runAvg speedWind from/ knotsBaromVisibWave heightAir tempDewpointWater temp
2017-Oct-23 08:00N 38°38' W 009°40'0 0.5
2017-Oct-23 07:30N 38°38' W 009°40'1 1.1
2017-Oct-23 07:00N 38°38' W 009°40'1 1.3
2017-Oct-23 06:30N 38°39' W 009°41'1 1.1
2017-Oct-23 06:00N 38°40' W 009°41'1 1.1
2017-Oct-23 05:25N 38°40' W 009°41'1 1.4
2017-Oct-23 05:00N 38°40' W 009°41'2 3.4
2017-Oct-23 04:22N 38°42' W 009°41'2 6.4
2017-Oct-23 04:00N 38°44' W 009°40'4 7.8
2017-Oct-23 03:30N 38°48' W 009°38'4 7.4
2017-Oct-23 03:00N 38°51' W 009°36'4 7.7
2017-Oct-23 02:30N 38°55' W 009°35'4 7.6
2017-Oct-23 02:00N 38°58' W 009°33'4 7.7
2017-Oct-23 01:29N 39°02' W 009°31'  
2017-Oct-19 22:26N 39°04' W 009°30'4 8.3
2017-Oct-19 22:00N 39°01' W 009°32'4 8.4
2017-Oct-19 21:30N 38°57' W 009°33'4 8.1
2017-Oct-19 21:00N 38°53' W 009°35'4 8.0
2017-Oct-19 20:30N 38°49' W 009°37'4 8.3
2017-Oct-19 20:00N 38°45' W 009°39'4 8.0
2017-Oct-19 19:30N 38°41' W 009°40'3 6.6
2017-Oct-19 19:00N 38°38' W 009°40'0 0.4
2017-Oct-19 18:23N 38°38' W 009°40'0 1.1
2017-Oct-19 18:00N 38°38' W 009°40'1 1.3
2017-Oct-19 17:30N 38°39' W 009°40'5 0.2
2017-Oct-18 19:31N 38°42' W 009°45'2 5.4
2017-Oct-18 19:14N 38°40' W 009°44'1 2.6
2017-Oct-18 19:00N 38°41' W 009°44'0 0.9
2017-Oct-18 18:29N 38°41' W 009°44'0 0.5
2017-Oct-18 18:00N 38°40' W 009°44'1 1.8
2017-Oct-18 17:28N 38°41' W 009°43'0 0.4
2017-Oct-18 16:58N 38°41' W 009°43'2 2.4
2017-Oct-18 16:03N 38°40' W 009°41'0 0.1
2017-Oct-18 15:09N 38°40' W 009°41'0 0.7
2017-Oct-18 15:00N 38°39' W 009°41'40 3.1
2017-Oct-18 02:08N 38°10' W 009°08'1 4.7
2017-Oct-18 01:58N 38°10' W 009°09'0 0.8
2017-Oct-18 01:29N 38°10' W 009°09'1 0.4
2017-Oct-17 21:51N 38°08' W 009°10'1 0.1
2017-Oct-17 05:05N 38°09' W 009°09'0 3.5
2017-Oct-17 04:56N 38°09' W 009°09'0 0.6
2017-Oct-17 04:15N 38°09' W 009°09'0 0.5
2017-Oct-17 03:52N 38°09' W 009°09'1 1.2
2017-Oct-17 03:16N 38°09' W 009°10'1 0.1
2017-Oct-16 23:28N 38°08' W 009°10'1 2.4
2017-Oct-16 23:00N 38°07' W 009°09'1 1.2
2017-Oct-16 22:28N 38°07' W 009°09'1 1.0
2017-Oct-16 21:52N 38°06' W 009°08'3 5.7
2017-Oct-16 21:24N 38°09' W 009°10'2 4.5
2017-Oct-16 20:56N 38°07' W 009°09'2 1.0
2017-Oct-16 18:37N 38°09' W 009°10'0 0.5
2017-Oct-16 18:26N 38°09' W 009°10'  
Track history (hours):
 
Tides and Currents Weather Stations Pressure Air Temp Water Temp Dewpoint Dewpoint Depression Visibility Wind Speed Wind Dir Waves Ship Positions

Gina Maria

Last reported at 2017-Oct-23 08:00 UTC. Time now 2017-Oct-23 08:23 UTC.
Position N 38°38' W 009°40'.

MMSI: 263317000.

Date/timePositionNaut miles runAvg speedWind from/ knotsBaromVisibWave heightAir tempDewpointWater temp
2017-Oct-23 08:00N 38°38' W 009°40'0 0.5
2017-Oct-23 07:30N 38°38' W 009°40'1 1.1
2017-Oct-23 07:00N 38°38' W 009°40'1 1.3
2017-Oct-23 06:30N 38°39' W 009°41'1 1.1
2017-Oct-23 06:00N 38°40' W 009°41'1 1.1
2017-Oct-23 05:25N 38°40' W 009°41'1 1.4
2017-Oct-23 05:00N 38°40' W 009°41'2 3.4
2017-Oct-23 04:22N 38°42' W 009°41'2 6.4
2017-Oct-23 04:00N 38°44' W 009°40'4 7.8
2017-Oct-23 03:30N 38°48' W 009°38'4 7.4
2017-Oct-23 03:00N 38°51' W 009°36'4 7.7
2017-Oct-23 02:30N 38°55' W 009°35'4 7.6
2017-Oct-23 02:00N 38°58' W 009°33'4 7.7
2017-Oct-23 01:29N 39°02' W 009°31'  
2017-Oct-19 22:26N 39°04' W 009°30'4 8.3
2017-Oct-19 22:00N 39°01' W 009°32'4 8.4
2017-Oct-19 21:30N 38°57' W 009°33'4 8.1
2017-Oct-19 21:00N 38°53' W 009°35'4 8.0
2017-Oct-19 20:30N 38°49' W 009°37'4 8.3
2017-Oct-19 20:00N 38°45' W 009°39'4 8.0
2017-Oct-19 19:30N 38°41' W 009°40'3 6.6
2017-Oct-19 19:00N 38°38' W 009°40'0 0.4
2017-Oct-19 18:23N 38°38' W 009°40'0 1.1
2017-Oct-19 18:00N 38°38' W 009°40'1 1.3
2017-Oct-19 17:30N 38°39' W 009°40'5 0.2
2017-Oct-18 19:31N 38°42' W 009°45'2 5.4
2017-Oct-18 19:14N 38°40' W 009°44'1 2.6
2017-Oct-18 19:00N 38°41' W 009°44'0 0.9
2017-Oct-18 18:29N 38°41' W 009°44'0 0.5
2017-Oct-18 18:00N 38°40' W 009°44'1 1.8
2017-Oct-18 17:28N 38°41' W 009°43'0 0.4
2017-Oct-18 16:58N 38°41' W 009°43'2 2.4
2017-Oct-18 16:03N 38°40' W 009°41'0 0.1
2017-Oct-18 15:09N 38°40' W 009°41'0 0.7
2017-Oct-18 15:00N 38°39' W 009°41'40 3.1
2017-Oct-18 02:08N 38°10' W 009°08'1 4.7
2017-Oct-18 01:58N 38°10' W 009°09'0 0.8
2017-Oct-18 01:29N 38°10' W 009°09'1 0.4
2017-Oct-17 21:51N 38°08' W 009°10'1 0.1
2017-Oct-17 05:05N 38°09' W 009°09'0 3.5
2017-Oct-17 04:56N 38°09' W 009°09'0 0.6
2017-Oct-17 04:15N 38°09' W 009°09'0 0.5
2017-Oct-17 03:52N 38°09' W 009°09'1 1.2
2017-Oct-17 03:16N 38°09' W 009°10'1 0.1
2017-Oct-16 23:28N 38°08' W 009°10'1 2.4
2017-Oct-16 23:00N 38°07' W 009°09'1 1.2
2017-Oct-16 22:28N 38°07' W 009°09'1 1.0
2017-Oct-16 21:52N 38°06' W 009°08'3 5.7
2017-Oct-16 21:24N 38°09' W 009°10'2 4.5
2017-Oct-16 20:56N 38°07' W 009°09'2 1.0
2017-Oct-16 18:37N 38°09' W 009°10'0 0.5
2017-Oct-16 18:26N 38°09' W 009°10'  

Dump ship's entire track history